Elk City, Oklahoma
Current Conditions -  °F | °C
As of 7:53 AM on Wednesday 28 Jan 2015 (Local Time) from KCSM Reporting Station
Clear Clear  
Wind Chill: 37°   Ceiling: Unl
Heat Index: 44°   Visibility: 10mi
Dew Point: 36°   Wind: 14mph
Humidity: 73%   Direction: 210°SSW
Pressure: 30"   Gusts: NA
Location:  35.41°N, 99.42°W
Report Text: KCSM 281353Z AUTO 21012KT 10SM CLR 07/02 A3000 RMK AO2 SLP155 T00670022
Loading
Personal Weather Stations






























Interactive Weather Map New forecast layout! Learn more

10-Day Weather Forecast

Advertisements
Track Severe Weather on mobile